Time;durP1;ratioP1;P1;durP2;ratioP2;P2;SDS_P1;SDS_P2;PMS_P1;PMS_P2;Temp;Humidity;BMP_temperature;BMP_pressure;BME280_temperature;BME280_humidity;BME280_pressure;Samples;Min_cycle;Max_cycle;Signal;HPM_P1;HPM_P2
2024/03/31 00:02:23;;;;;;;20.13;13.77;;;9.40;99.90;;;;;;770455;186;26528;-84
2024/03/31 00:04:50;;;;;;;18.30;13.53;;;9.40;99.90;;;;;;767079;186;26500;-84
2024/03/31 00:07:17;;;;;;;16.97;13.43;;;9.40;99.90;;;;;;764909;186;26510;-83
2024/03/31 00:09:46;;;;;;;18.47;14.33;;;9.40;99.90;;;;;;765521;184;26551;-83
2024/03/31 00:12:10;;;;;;;16.67;13.37;;;9.50;99.90;;;;;;770958;185;26531;-82
2024/03/31 00:14:37;;;;;;;19.37;14.57;;;9.50;99.90;;;;;;766241;186;26511;-85
2024/03/31 00:17:04;;;;;;;17.17;12.63;;;9.50;99.90;;;;;;769279;186;26499;-84
2024/03/31 00:19:30;;;;;;;18.97;13.67;;;9.50;99.90;;;;;;766039;186;26555;-84
2024/03/31 00:21:59;;;;;;;18.30;12.97;;;9.50;99.90;;;;;;767718;186;27089;-84
2024/03/31 00:24:26;;;;;;;18.17;13.17;;;9.70;99.90;;;;;;764239;185;27069;-84
2024/03/31 00:26:53;;;;;;;17.00;13.43;;;9.70;99.90;;;;;;764266;187;28180;-84
2024/03/31 00:29:21;;;;;;;21.10;14.33;;;9.70;99.90;;;;;;764265;186;26522;-84
2024/03/31 00:31:48;;;;;;;23.63;15.83;;;9.60;99.90;;;;;;767098;186;26490;-83
2024/03/31 00:34:14;;;;;;;23.33;15.70;;;9.60;99.90;;;;;;763475;187;27046;-85
2024/03/31 00:36:41;;;;;;;21.40;15.13;;;9.60;99.90;;;;;;763178;187;26518;-84
2024/03/31 00:39:09;;;;;;;20.60;15.23;;;9.70;99.90;;;;;;765722;186;27022;-85
2024/03/31 00:41:34;;;;;;;22.13;15.63;;;9.70;99.90;;;;;;763494;187;26504;-85
2024/03/31 00:44:02;;;;;;;24.40;16.53;;;9.70;99.90;;;;;;763527;187;26494;-85
2024/03/31 00:46:28;;;;;;;23.50;15.97;;;9.60;99.90;;;;;;766382;186;26500;-84
2024/03/31 00:48:54;;;;;;;22.97;16.43;;;9.60;99.90;;;;;;764757;186;26502;-83
2024/03/31 00:51:21;;;;;;;23.33;15.27;;;9.60;99.90;;;;;;764694;186;26506;-83
2024/03/31 00:53:47;;;;;;;24.40;15.87;;;9.60;99.90;;;;;;767090;186;26487;-84
2024/03/31 00:56:14;;;;;;;21.43;15.57;;;9.60;99.90;;;;;;767784;186;26492;-84
2024/03/31 00:58:41;;;;;;;24.73;15.73;;;9.60;99.90;;;;;;766090;186;26510;-83
2024/03/31 01:01:07;;;;;;;28.23;19.23;;;9.60;99.90;;;;;;767822;186;26588;-84
2024/03/31 01:03:34;;;;;;;20.80;15.33;;;9.60;99.90;;;;;;764181;186;26644;-84
2024/03/31 01:06:00;;;;;;;20.73;14.80;;;9.60;99.90;;;;;;767880;186;26499;-85
2024/03/31 01:08:27;;;;;;;21.67;15.27;;;9.60;99.90;;;;;;764472;186;27119;-84
2024/03/31 01:10:54;;;;;;;22.93;15.53;;;9.60;99.90;;;;;;767974;183;26515;-84
2024/03/31 01:13:21;;;;;;;20.97;15.40;;;9.60;99.90;;;;;;764362;186;26684;-83
2024/03/31 01:15:47;;;;;;;20.80;15.33;;;9.60;99.90;;;;;;766259;186;26497;-84
2024/03/31 01:18:14;;;;;;;29.17;18.50;;;9.60;99.90;;;;;;763177;186;26494;-84
2024/03/31 01:20:47;;;;;;;22.30;15.73;;;9.60;99.90;;;;;;766813;185;26516;-85
2024/03/31 01:23:18;;;;;;;20.63;15.50;;;9.60;99.90;;;;;;777361;183;26477;-80
2024/03/31 01:25:54;;;;;;;22.80;14.97;;;9.60;99.90;;;;;;769689;185;26518;-78
2024/03/31 01:28:30;;;;;;;19.50;14.93;;;9.60;99.90;;;;;;763036;186;26565;-80
2024/03/31 01:31:04;;;;;;;22.87;15.13;;;9.60;99.90;;;;;;780476;183;26500;-81
2024/03/31 01:33:48;;;;;;;19.40;14.23;;;9.60;99.90;;;;;;768560;185;26657;-81
2024/03/31 01:36:21;;;;;;;19.60;14.80;;;9.70;99.90;;;;;;763339;186;26542;-81
2024/03/31 01:38:59;;;;;;;20.27;14.10;;;9.70;99.90;;;;;;765700;186;27080;-80
2024/03/31 01:41:31;;;;;;;21.53;14.73;;;9.70;99.90;;;;;;753552;187;26546;-81
2024/03/31 01:44:04;;;;;;;18.00;12.57;;;9.80;99.90;;;;;;762875;187;26638;-81
2024/03/31 01:46:37;;;;;;;21.37;13.37;;;9.80;99.90;;;;;;762449;188;26413;-81
2024/03/31 01:49:11;;;;;;;18.63;12.67;;;9.90;99.90;;;;;;770511;186;26482;-80
2024/03/31 01:51:41;;;;;;;18.00;12.23;;;9.80;99.90;;;;;;770626;184;26473;-80
2024/03/31 01:54:24;;;;;;;20.73;12.53;;;9.80;99.90;;;;;;766105;186;26496;-80
2024/03/31 01:57:04;;;;;;;18.63;13.03;;;9.80;99.90;;;;;;770157;184;27031;-80
2024/03/31 01:59:38;;;;;;;20.80;11.67;;;9.80;99.90;;;;;;754641;187;26491;-80
2024/03/31 02:02:07;;;;;;;20.20;10.43;;;9.80;99.90;;;;;;748419;187;26679;-79
2024/03/31 02:04:39;;;;;;;20.10;10.93;;;9.80;99.90;;;;;;768866;183;26664;-80
2024/03/31 02:07:13;;;;;;;20.87;10.63;;;9.80;99.90;;;;;;769942;183;26485;-80
2024/03/31 02:09:54;;;;;;;22.13;11.00;;;9.70;99.90;;;;;;768236;186;26505;-80
2024/03/31 02:12:22;;;;;;;17.17;9.93;;;9.70;99.90;;;;;;760212;186;26540;-79
2024/03/31 02:15:26;;;;;;;20.60;10.10;;;9.80;99.90;;;;;;768075;186;27862;-80
2024/03/31 02:17:47;;;;;;;16.70;8.40;;;9.80;99.90;;;;;;748691;189;26528;-80
2024/03/31 02:20:26;;;;;;;18.73;8.67;;;9.90;99.90;;;;;;769788;186;26482;-81
2024/03/31 02:23:05;;;;;;;17.57;9.33;;;9.90;99.90;;;;;;763166;186;26502;-82
2024/03/31 02:25:41;;;;;;;17.37;8.87;;;9.90;99.90;;;;;;767950;186;26645;-79
2024/03/31 02:28:17;;;;;;;17.27;9.67;;;9.80;99.90;;;;;;765518;186;26515;-79
2024/03/31 02:30:53;;;;;;;18.27;9.13;;;9.80;99.90;;;;;;751012;187;26510;-78
2024/03/31 02:33:31;;;;;;;13.80;8.93;;;9.80;99.90;;;;;;757181;188;26507;-79
2024/03/31 02:36:13;;;;;;;17.07;8.63;;;9.70;99.90;;;;;;766409;186;26409;-78
2024/03/31 02:38:43;;;;;;;14.63;9.07;;;9.70;99.90;;;;;;773807;185;26465;-78
2024/03/31 02:41:20;;;;;;;14.93;9.30;;;9.70;99.90;;;;;;766290;183;26507;-78
2024/03/31 02:43:51;;;;;;;19.97;10.10;;;9.60;99.90;;;;;;769076;186;26546;-79
2024/03/31 02:46:21;;;;;;;18.77;10.30;;;9.60;99.90;;;;;;766904;186;26492;-79
2024/03/31 02:48:55;;;;;;;18.97;9.83;;;9.60;99.90;;;;;;764546;186;26534;-79
2024/03/31 02:51:35;;;;;;;15.60;8.47;;;9.60;99.90;;;;;;765236;186;26507;-79
2024/03/31 02:54:11;;;;;;;26.23;10.80;;;9.70;99.90;;;;;;766252;186;26500;-78
2024/03/31 02:56:41;;;;;;;27.33;10.30;;;9.70;99.90;;;;;;763733;187;26524;-78
2024/03/31 02:59:16;;;;;;;18.73;8.60;;;9.70;99.90;;;;;;762269;187;26474;-79
2024/03/31 03:01:48;;;;;;;18.47;8.77;;;9.70;99.90;;;;;;753451;189;27737;-78
2024/03/31 03:04:22;;;;;;;17.80;8.53;;;9.70;99.90;;;;;;769006;186;26514;-78
2024/03/31 03:06:57;;;;;;;17.90;8.57;;;9.60;99.90;;;;;;767086;186;27089;-79
2024/03/31 03:09:30;;;;;;;13.97;7.03;;;9.60;99.90;;;;;;757314;189;26510;-79
2024/03/31 03:12:01;;;;;;;22.80;8.53;;;9.70;99.90;;;;;;767557;184;26508;-79
2024/03/31 03:14:35;;;;;;;14.03;8.07;;;9.60;99.90;;;;;;769941;186;26477;-80
2024/03/31 03:17:14;;;;;;;15.03;7.50;;;9.60;99.90;;;;;;769780;184;26471;-80
2024/03/31 03:19:54;;;;;;;17.87;8.87;;;9.60;99.90;;;;;;770945;186;26498;-79
2024/03/31 03:22:39;;;;;;;19.07;8.57;;;9.60;99.90;;;;;;770811;183;26507;-79
2024/03/31 03:25:19;;;;;;;23.33;9.17;;;9.50;99.90;;;;;;767482;186;26503;-79
2024/03/31 03:30:28;;;;;;;15.57;7.70;;;9.50;99.90;;;;;;768150;186;26595;-80
2024/03/31 03:33:01;;;;;;;22.23;8.03;;;9.60;99.90;;;;;;762814;184;26515;-80
2024/03/31 03:35:30;;;;;;;16.23;8.63;;;9.60;99.90;;;;;;760115;187;26526;-80
2024/03/31 03:38:00;;;;;;;24.00;9.53;;;9.50;99.90;;;;;;767286;185;26461;-80
2024/03/31 03:40:34;;;;;;;18.63;9.43;;;9.50;99.90;;;;;;765361;187;26638;-81
2024/03/31 03:43:14;;;;;;;19.67;8.40;;;9.50;99.90;;;;;;767667;184;26511;-80
2024/03/31 03:45:42;;;;;;;19.87;8.13;;;9.50;99.90;;;;;;770114;185;26485;-80
2024/03/31 03:48:28;;;;;;;17.00;8.40;;;9.50;99.90;;;;;;767730;184;26625;-81
2024/03/31 03:50:57;;;;;;;15.20;8.63;;;9.40;99.90;;;;;;769492;183;27107;-79
2024/03/31 03:53:27;;;;;;;18.27;9.27;;;9.50;99.90;;;;;;768715;186;26683;-80
2024/03/31 03:55:59;;;;;;;19.47;8.80;;;9.50;99.90;;;;;;767272;186;26684;-81
2024/03/31 03:58:28;;;;;;;21.30;8.30;;;9.50;99.90;;;;;;767390;186;26517;-81
2024/03/31 04:01:04;;;;;;;16.73;7.97;;;9.50;99.90;;;;;;770580;187;26649;-79
2024/03/31 04:03:34;;;;;;;20.57;8.33;;;9.40;99.90;;;;;;752969;189;26540;-79
2024/03/31 04:06:05;;;;;;;21.57;8.47;;;9.40;99.90;;;;;;766595;187;26474;-79
2024/03/31 04:08:39;;;;;;;15.93;8.30;;;9.40;99.90;;;;;;769909;185;26490;-79
2024/03/31 04:11:10;;;;;;;14.70;7.27;;;9.50;99.90;;;;;;763116;186;26550;-81
2024/03/31 04:13:41;;;;;;;19.13;6.90;;;9.50;99.90;;;;;;764236;186;26490;-81
2024/03/31 04:16:22;;;;;;;;;;;;;;;;;;;;;
2024/03/31 04:18:52;;;;;;;17.50;6.37;;;9.50;99.90;;;;;;757452;189;26650;-80
2024/03/31 04:21:24;;;;;;;18.47;6.60;;;9.50;99.90;;;;;;762998;185;26441;-80
2024/03/31 04:23:54;;;;;;;16.90;6.60;;;9.50;99.90;;;;;;767423;186;26503;-80
2024/03/31 04:26:31;;;;;;;16.60;7.47;;;9.50;99.90;;;;;;767177;185;26529;-80
2024/03/31 04:31:38;;;;;;;19.27;6.07;;;9.60;99.90;;;;;;752904;187;26591;-79
2024/03/31 04:34:16;;;;;;;19.70;6.50;;;9.60;99.90;;;;;;767171;184;27030;-80
2024/03/31 04:36:48;;;;;;;20.33;7.63;;;9.60;99.90;;;;;;770520;186;26532;-81
2024/03/31 04:39:24;;;;;;;16.00;6.87;;;9.60;99.90;;;;;;770856;185;26516;-79
2024/03/31 04:42:01;;;;;;;20.87;6.90;;;9.60;99.90;;;;;;768893;186;26576;-79
2024/03/31 04:44:39;;;;;;;19.63;7.33;;;9.60;99.90;;;;;;762430;186;26605;-80
2024/03/31 04:47:26;;;;;;;16.57;6.20;;;9.60;99.90;;;;;;766221;187;26512;-80
2024/03/31 04:50:02;;;;;;;22.70;6.60;;;9.70;99.90;;;;;;762945;186;26509;-80
2024/03/31 04:52:42;;;;;;;15.03;6.40;;;9.70;99.90;;;;;;764323;186;26536;-80
2024/03/31 04:55:12;;;;;;;18.97;6.80;;;9.70;99.90;;;;;;768033;186;26516;-78
2024/03/31 04:57:46;;;;;;;21.87;7.00;;;9.70;99.90;;;;;;748477;189;26566;-79
2024/03/31 05:00:20;;;;;;;20.10;6.63;;;9.70;99.90;;;;;;771421;186;26570;-79
2024/03/31 05:02:47;;;;;;;15.30;5.60;;;9.80;99.90;;;;;;804156;171;26474;-82
2024/03/31 05:05:13;;;;;;;16.27;6.03;;;9.70;99.90;;;;;;795856;179;26530;-80
2024/03/31 05:07:40;;;;;;;21.17;6.03;;;9.70;99.90;;;;;;794380;181;26465;-83
2024/03/31 05:10:07;;;;;;;19.77;5.60;;;9.80;99.90;;;;;;808529;174;26431;-83
2024/03/31 05:12:33;;;;;;;17.63;6.03;;;9.80;99.90;;;;;;795362;177;26465;-82
2024/03/31 05:15:00;;;;;;;21.60;6.63;;;9.80;99.90;;;;;;821119;175;26420;-81
2024/03/31 05:17:27;;;;;;;17.73;5.93;;;9.80;99.90;;;;;;805769;175;26951;-83
2024/03/31 05:19:53;;;;;;;20.00;6.37;;;9.90;99.90;;;;;;816466;170;26573;-84
2024/03/31 05:22:20;;;;;;;13.47;5.97;;;9.90;99.90;;;;;;807295;175;26440;-84
2024/03/31 05:24:47;;;;;;;18.83;6.60;;;9.80;99.90;;;;;;813759;174;26401;-83
2024/03/31 05:27:13;;;;;;;16.70;6.50;;;9.80;99.90;;;;;;813599;174;26400;-84
2024/03/31 05:29:40;;;;;;;19.63;6.77;;;9.80;99.90;;;;;;821140;175;26563;-82
2024/03/31 05:32:07;;;;;;;13.80;6.00;;;9.80;99.90;;;;;;813076;174;26420;-82
2024/03/31 05:34:33;;;;;;;21.30;6.30;;;9.80;99.90;;;;;;817903;175;26419;-81
2024/03/31 05:37:00;;;;;;;19.60;6.50;;;9.90;99.90;;;;;;814408;175;26437;-83
2024/03/31 05:39:26;;;;;;;14.03;5.67;;;9.90;99.90;;;;;;813056;175;26417;-84
2024/03/31 05:41:53;;;;;;;14.83;5.43;;;9.90;99.90;;;;;;806770;175;26954;-84
2024/03/31 05:44:20;;;;;;;17.57;5.37;;;9.80;99.90;;;;;;807103;175;26924;-82
2024/03/31 05:46:46;;;;;;;16.50;5.97;;;9.90;99.90;;;;;;804900;175;26408;-80
2024/03/31 05:49:13;;;;;;;18.43;5.60;;;9.90;99.90;;;;;;805782;175;26600;-83
2024/03/31 05:51:40;;;;;;;13.23;5.00;;;10.00;99.90;;;;;;802501;178;26405;-83
2024/03/31 05:54:06;;;;;;;20.33;5.33;;;10.00;99.90;;;;;;813925;175;26413;-81
2024/03/31 05:56:33;;;;;;;18.00;5.63;;;10.00;99.90;;;;;;814770;172;26411;-80
2024/03/31 05:59:00;;;;;;;17.37;4.87;;;10.00;99.90;;;;;;820474;174;26401;-80
2024/03/31 06:01:26;;;;;;;21.30;5.90;;;10.00;99.90;;;;;;805417;174;26426;-82
2024/03/31 06:03:53;;;;;;;20.70;5.57;;;10.00;99.90;;;;;;820310;175;26432;-83
2024/03/31 06:06:19;;;;;;;15.83;5.37;;;10.00;99.90;;;;;;816379;174;26416;-82
2024/03/31 06:08:46;;;;;;;15.40;5.90;;;10.00;99.90;;;;;;814631;173;26407;-82
2024/03/31 06:11:14;;;;;;;17.43;5.70;;;10.00;99.90;;;;;;813205;174;27014;-83
2024/03/31 06:13:39;;;;;;;17.03;5.37;;;10.00;99.90;;;;;;821841;174;26407;-82
2024/03/31 06:16:06;;;;;;;16.93;5.00;;;10.00;99.90;;;;;;815020;175;26410;-81
2024/03/31 06:18:33;;;;;;;20.77;5.87;;;10.00;99.90;;;;;;811288;175;26395;-82
2024/03/31 06:20:59;;;;;;;20.03;5.67;;;10.00;99.90;;;;;;820231;173;26440;-82
2024/03/31 06:23:26;;;;;;;16.30;5.50;;;10.00;99.90;;;;;;817820;174;26433;-80
2024/03/31 06:25:56;;;;;;;18.17;5.27;;;10.00;99.90;;;;;;809837;174;26582;-80
2024/03/31 06:28:23;;;;;;;20.87;6.03;;;10.00;99.90;;;;;;809514;175;26399;-82
2024/03/31 06:30:50;;;;;;;15.37;6.50;;;10.00;99.90;;;;;;806949;175;26515;-84
2024/03/31 06:33:16;;;;;;;13.13;5.00;;;10.00;99.90;;;;;;817182;175;26589;-82
2024/03/31 06:35:43;;;;;;;19.53;5.13;;;10.10;99.90;;;;;;813396;175;26428;-80
2024/03/31 06:38:10;;;;;;;15.87;5.47;;;10.10;99.90;;;;;;820939;173;26424;-83
2024/03/31 06:40:37;;;;;;;12.93;5.17;;;10.20;99.90;;;;;;814034;175;26445;-85
2024/03/31 06:43:04;;;;;;;18.63;4.23;;;10.20;99.90;;;;;;820365;175;26405;-82
2024/03/31 06:45:32;;;;;;;17.80;5.43;;;10.30;99.90;;;;;;811464;175;26635;-83
2024/03/31 06:47:58;;;;;;;20.40;5.07;;;10.40;99.90;;;;;;814937;175;26592;-83
2024/03/31 06:50:25;;;;;;;22.87;5.50;;;10.40;99.90;;;;;;816208;174;26467;-82
2024/03/31 06:52:51;;;;;;;13.93;4.80;;;10.40;99.90;;;;;;814723;175;26485;-83
2024/03/31 06:55:18;;;;;;;22.47;5.07;;;10.50;99.90;;;;;;813059;175;26443;-82
2024/03/31 06:57:45;;;;;;;14.87;5.00;;;10.50;99.90;;;;;;816891;175;26970;-81
2024/03/31 07:00:13;;;;;;;16.13;4.33;;;10.60;99.90;;;;;;815481;174;26428;-84
2024/03/31 07:02:40;;;;;;;16.07;4.90;;;10.70;99.90;;;;;;810679;175;26585;-84
2024/03/31 07:05:06;;;;;;;16.83;4.80;;;10.80;99.90;;;;;;817625;175;26397;-81
2024/03/31 07:07:33;;;;;;;12.60;4.60;;;10.90;99.90;;;;;;815099;175;26571;-84
2024/03/31 07:10:00;;;;;;;18.27;5.30;;;11.00;99.90;;;;;;819756;175;26425;-82
2024/03/31 07:12:26;;;;;;;18.27;4.83;;;11.10;99.90;;;;;;811309;174;27136;-83
2024/03/31 07:14:53;;;;;;;14.80;4.73;;;11.20;99.90;;;;;;810043;175;26413;-81
2024/03/31 07:17:20;;;;;;;17.93;4.17;;;11.30;99.90;;;;;;818232;175;26438;-81
2024/03/31 07:19:46;;;;;;;19.43;4.30;;;11.40;99.90;;;;;;807919;173;26423;-83
2024/03/31 07:22:13;;;;;;;18.00;4.50;;;11.30;99.90;;;;;;801422;170;26599;-79
2024/03/31 07:24:39;;;;;;;18.53;4.73;;;11.30;99.90;;;;;;775363;184;26486;-80
2024/03/31 07:27:06;;;;;;;15.47;4.80;;;11.30;99.90;;;;;;795777;179;26448;-81
2024/03/31 07:29:33;;;;;;;14.67;4.33;;;11.40;99.90;;;;;;788658;177;26481;-81
2024/03/31 07:31:59;;;;;;;17.47;4.20;;;11.50;99.90;;;;;;768618;184;26556;-81
2024/03/31 07:34:26;;;;;;;15.10;4.13;;;11.60;99.90;;;;;;769880;187;26499;-80
2024/03/31 07:36:52;;;;;;;14.50;4.03;;;11.70;99.90;;;;;;765971;187;26492;-81
2024/03/31 07:39:19;;;;;;;14.10;3.60;;;11.80;99.90;;;;;;770929;186;26537;-81
2024/03/31 07:41:45;;;;;;;13.27;3.60;;;11.80;99.90;;;;;;769124;186;26512;-81
2024/03/31 07:44:15;;;;;;;15.37;3.50;;;11.90;99.90;;;;;;769249;183;26475;-80
2024/03/31 07:46:39;;;;;;;12.80;4.03;;;12.00;99.90;;;;;;769830;183;26518;-79
2024/03/31 07:49:05;;;;;;;10.83;3.80;;;11.90;99.90;;;;;;770508;183;26488;-79
2024/03/31 07:51:32;;;;;;;15.13;3.80;;;12.00;99.90;;;;;;782803;183;26704;-80
2024/03/31 07:53:58;;;;;;;11.60;4.20;;;12.00;99.90;;;;;;777467;182;26518;-80
2024/03/31 07:56:25;;;;;;;15.40;3.93;;;12.10;99.90;;;;;;770180;183;26462;-80
2024/03/31 07:58:52;;;;;;;13.53;3.43;;;12.20;99.90;;;;;;780862;183;26485;-80
2024/03/31 08:01:18;;;;;;;14.47;3.83;;;12.10;99.90;;;;;;780554;180;26483;-80
2024/03/31 08:03:45;;;;;;;12.77;3.70;;;12.20;99.90;;;;;;785385;180;26477;-80
2024/03/31 08:06:11;;;;;;;15.07;3.60;;;12.20;99.90;;;;;;774907;183;26491;-79
2024/03/31 08:08:38;;;;;;;16.77;4.40;;;12.40;99.90;;;;;;766852;184;26496;-80
2024/03/31 08:11:05;;;;;;;18.93;3.53;;;12.50;99.90;;;;;;768774;183;26483;-80
2024/03/31 08:13:31;;;;;;;13.83;3.40;;;12.60;99.90;;;;;;769618;184;26483;-80
2024/03/31 08:15:58;;;;;;;15.43;3.30;;;12.70;99.90;;;;;;769583;184;26478;-81
2024/03/31 08:18:24;;;;;;;16.27;3.37;;;12.80;99.90;;;;;;775893;183;26478;-81
2024/03/31 08:20:51;;;;;;;13.60;3.33;;;12.90;99.90;;;;;;772299;183;26478;-80
2024/03/31 08:23:18;;;;;;;14.23;3.20;;;12.90;99.90;;;;;;775670;183;26495;-80
2024/03/31 08:25:44;;;;;;;13.67;3.77;;;13.00;99.90;;;;;;776979;184;26493;-81
2024/03/31 08:28:11;;;;;;;17.83;3.10;;;13.10;99.90;;;;;;771508;184;26496;-80
2024/03/31 08:30:38;;;;;;;16.37;3.37;;;13.10;99.90;;;;;;779069;181;26487;-79
2024/03/31 08:33:05;;;;;;;12.97;3.00;;;13.20;99.90;;;;;;783049;183;26495;-79
2024/03/31 08:35:31;;;;;;;15.20;3.87;;;13.20;99.90;;;;;;772750;183;26522;-80
2024/03/31 08:37:58;;;;;;;14.57;3.67;;;13.20;99.90;;;;;;771958;185;26483;-80
2024/03/31 08:40:25;;;;;;;12.20;3.80;;;13.40;99.90;;;;;;769864;183;26479;-81
2024/03/31 08:43:06;;;;;;;14.17;3.00;;;13.60;99.90;;;;;;772022;185;26508;-80
2024/03/31 08:45:34;;;;;;;18.80;4.00;;;13.60;99.90;;;;;;773226;183;26490;-80
2024/03/31 08:47:59;;;;;;;12.43;3.20;;;13.70;99.90;;;;;;780955;183;26488;-80
2024/03/31 08:50:26;;;;;;;17.10;3.23;;;13.90;99.90;;;;;;783272;183;26503;-78
2024/03/31 08:52:52;;;;;;;14.00;4.00;;;13.90;99.90;;;;;;774004;182;27082;-79
2024/03/31 08:55:19;;;;;;;14.60;3.57;;;14.10;99.90;;;;;;775656;183;26486;-80
2024/03/31 08:57:46;;;;;;;14.03;2.77;;;14.30;99.90;;;;;;774988;180;27047;-79
2024/03/31 09:00:12;;;;;;;14.23;3.03;;;14.50;99.90;;;;;;768089;183;26471;-79
2024/03/31 09:02:39;;;;;;;18.80;3.53;;;14.50;99.90;;;;;;767426;186;26510;-79
2024/03/31 09:05:07;;;;;;;11.60;3.73;;;14.60;99.90;;;;;;774928;183;26475;-80
2024/03/31 09:07:34;;;;;;;14.87;2.80;;;14.70;99.90;;;;;;769734;183;27691;-77
2024/03/31 09:09:59;;;;;;;12.63;3.43;;;14.70;99.90;;;;;;776327;183;26483;-80
2024/03/31 09:12:26;;;;;;;12.80;2.87;;;14.90;99.90;;;;;;770769;183;27106;-80
2024/03/31 09:14:52;;;;;;;11.87;2.80;;;15.10;99.90;;;;;;771713;183;26487;-78
2024/03/31 09:17:19;;;;;;;10.87;3.07;;;15.10;99.90;;;;;;768555;183;26505;-79
2024/03/31 09:19:45;;;;;;;14.47;3.43;;;15.30;99.90;;;;;;774938;183;26470;-79
2024/03/31 09:22:14;;;;;;;12.87;2.90;;;15.30;99.90;;;;;;768387;186;27076;-79
2024/03/31 09:24:43;;;;;;;10.40;2.77;;;15.30;99.90;;;;;;777839;182;27038;-78
2024/03/31 09:27:10;;;;;;;15.50;2.90;;;15.40;99.90;;;;;;776417;183;26478;-79
2024/03/31 09:29:36;;;;;;;11.63;2.73;;;15.70;99.90;;;;;;778249;183;26473;-79
2024/03/31 09:32:08;;;;;;;13.60;3.23;;;15.90;99.90;;;;;;773112;183;26496;-80
2024/03/31 09:34:35;;;;;;;12.00;3.20;;;16.00;99.90;;;;;;768436;182;26491;-80
2024/03/31 09:37:01;;;;;;;8.80;2.07;;;16.00;99.90;;;;;;773144;183;26469;-80
2024/03/31 09:39:28;;;;;;;10.83;2.60;;;15.80;99.90;;;;;;774420;183;26480;-81
2024/03/31 09:41:56;;;;;;;11.00;2.87;;;15.90;99.90;;;;;;773804;183;26489;-80
2024/03/31 09:44:23;;;;;;;10.60;2.50;;;16.20;99.90;;;;;;778142;181;26487;-81
2024/03/31 09:46:49;;;;;;;9.00;2.77;;;16.60;99.90;;;;;;780409;183;26480;-80
2024/03/31 09:49:17;;;;;;;13.70;3.03;;;16.90;99.90;;;;;;775558;185;27028;-80
2024/03/31 09:51:43;;;;;;;9.80;2.67;;;16.90;99.90;;;;;;778670;183;27127;-80
2024/03/31 09:54:13;;;;;;;8.27;2.87;;;16.80;99.90;;;;;;778728;183;26497;-80
2024/03/31 09:56:41;;;;;;;10.80;2.77;;;16.80;99.90;;;;;;775962;182;26524;-80
2024/03/31 09:59:07;;;;;;;8.60;2.87;;;16.80;99.90;;;;;;776711;182;26513;-79
2024/03/31 10:01:33;;;;;;;9.43;2.43;;;17.00;99.90;;;;;;777432;183;27102;-80
2024/03/31 10:04:00;;;;;;;6.40;2.73;;;17.10;99.50;;;;;;768583;182;26524;-79
2024/03/31 10:06:27;;;;;;;7.67;2.40;;;17.20;98.70;;;;;;767791;183;27058;-80
2024/03/31 10:08:53;;;;;;;11.10;2.50;;;17.20;99.90;;;;;;768597;183;26490;-79
2024/03/31 10:11:20;;;;;;;7.17;2.00;;;17.30;99.70;;;;;;775471;183;26486;-80
2024/03/31 10:13:46;;;;;;;11.53;2.77;;;17.30;99.90;;;;;;778371;183;26477;-79
2024/03/31 10:16:13;;;;;;;8.73;2.10;;;17.40;98.50;;;;;;781953;183;26509;-80
2024/03/31 10:18:40;;;;;;;6.20;2.47;;;17.40;99.90;;;;;;777427;183;26499;-80
2024/03/31 10:21:06;;;;;;;10.43;2.50;;;17.60;98.40;;;;;;768011;186;26498;-80
2024/03/31 10:23:33;;;;;;;12.97;3.07;;;17.90;97.10;;;;;;779595;183;26472;-80
2024/03/31 10:25:59;;;;;;;12.77;2.93;;;18.20;96.40;;;;;;780850;183;26475;-79
2024/03/31 10:28:26;;;;;;;11.47;2.60;;;18.10;95.40;;;;;;780926;183;26473;-79
2024/03/31 10:30:52;;;;;;;6.00;2.20;;;18.30;97.60;;;;;;772742;186;26512;-80
2024/03/31 10:33:19;;;;;;;9.70;2.33;;;18.40;94.80;;;;;;774830;183;27040;-79
2024/03/31 10:35:46;;;;;;;10.93;2.67;;;18.20;87.70;;;;;;767870;186;26496;-79
2024/03/31 10:38:12;;;;;;;6.53;2.17;;;18.40;85.80;;;;;;768052;183;26626;-80
2024/03/31 10:40:39;;;;;;;11.10;2.97;;;18.50;87.10;;;;;;774814;183;26507;-80
2024/03/31 10:43:07;;;;;;;8.53;2.10;;;19.00;86.40;;;;;;768503;184;26479;-79
2024/03/31 10:45:32;;;;;;;9.33;2.50;;;19.60;83.30;;;;;;769415;183;26479;-79
2024/03/31 10:47:59;;;;;;;10.33;2.43;;;20.30;73.90;;;;;;779682;183;26461;-79
2024/03/31 10:50:25;;;;;;;7.27;2.00;;;21.30;69.10;;;;;;774747;183;26463;-79
2024/03/31 10:52:52;;;;;;;8.57;2.13;;;22.40;65.50;;;;;;775698;183;27079;-79
2024/03/31 10:55:18;;;;;;;12.53;2.50;;;23.20;62.50;;;;;;774195;183;26455;-79
2024/03/31 10:57:45;;;;;;;9.47;2.47;;;23.70;48.60;;;;;;786586;182;26469;-79
2024/03/31 11:00:17;;;;;;;10.57;2.60;;;24.40;48.40;;;;;;782405;182;26480;-78
2024/03/31 11:02:48;;;;;;;6.17;2.23;;;24.10;44.70;;;;;;777802;182;26493;-79
2024/03/31 11:05:11;;;;;;;10.33;2.57;;;23.80;49.90;;;;;;777851;182;26640;-80
2024/03/31 11:07:38;;;;;;;10.63;2.63;;;23.80;45.60;;;;;;772579;181;26463;-79
2024/03/31 11:10:06;;;;;;;12.33;2.40;;;22.80;49.40;;;;;;773817;183;26482;-79
2024/03/31 11:12:32;;;;;;;10.70;2.20;;;22.90;49.30;;;;;;775471;183;26519;-79
2024/03/31 11:14:59;;;;;;;9.40;2.13;;;23.50;52.80;;;;;;780662;183;26609;-79
2024/03/31 11:17:26;;;;;;;9.27;3.00;;;23.20;48.00;;;;;;776007;182;26496;-80
2024/03/31 11:19:52;;;;;;;12.90;3.40;;;24.10;50.70;;;;;;771357;185;27034;-79
2024/03/31 11:22:21;;;;;;;13.27;2.90;;;24.60;49.20;;;;;;775908;183;26513;-79
2024/03/31 11:24:47;;;;;;;10.30;3.30;;;24.60;42.00;;;;;;777692;183;26464;-79
2024/03/31 11:27:14;;;;;;;8.50;2.60;;;22.70;42.20;;;;;;772399;180;26517;-81
2024/03/31 11:29:41;;;;;;;12.70;2.93;;;22.10;47.60;;;;;;769493;186;26481;-79
2024/03/31 11:32:07;;;;;;;9.17;2.30;;;21.90;48.00;;;;;;776905;183;26498;-80
2024/03/31 11:34:38;;;;;;;7.87;2.47;;;21.50;47.30;;;;;;777535;183;26481;-80
2024/03/31 11:37:08;;;;;;;7.43;2.47;;;22.10;52.50;;;;;;777437;183;26474;-81
2024/03/31 11:39:50;;;;;;;10.93;2.50;;;22.20;51.60;;;;;;783717;183;26472;-81
2024/03/31 11:42:16;;;;;;;7.67;2.73;;;21.90;47.10;;;;;;778474;183;26483;-80
2024/03/31 11:44:43;;;;;;;10.10;2.73;;;21.40;49.00;;;;;;779320;180;26477;-80
2024/03/31 11:47:12;;;;;;;9.70;2.47;;;20.80;49.00;;;;;;780219;183;26502;-80
2024/03/31 11:49:36;;;;;;;12.07;2.53;;;20.60;53.60;;;;;;776799;183;26485;-79
2024/03/31 11:52:03;;;;;;;10.50;2.87;;;20.00;54.40;;;;;;773123;183;26671;-80
2024/03/31 11:54:30;;;;;;;8.73;2.13;;;20.00;63.20;;;;;;778924;182;26470;-80
2024/03/31 11:56:56;;;;;;;13.87;3.13;;;20.40;70.40;;;;;;772887;183;26488;-81
2024/03/31 11:59:23;;;;;;;6.17;2.30;;;20.60;65.10;;;;;;778590;181;26502;-80
2024/03/31 12:01:56;;;;;;;8.53;1.90;;;20.70;60.00;;;;;;771593;182;26501;-80
2024/03/31 12:04:22;;;;;;;10.10;2.40;;;20.60;59.00;;;;;;768822;184;26487;-82
2024/03/31 12:06:49;;;;;;;11.90;2.90;;;20.50;63.20;;;;;;773977;183;26629;-80
2024/03/31 12:09:15;;;;;;;7.50;2.03;;;21.00;58.80;;;;;;773440;182;26475;-81
2024/03/31 12:11:42;;;;;;;11.77;2.40;;;21.10;64.90;;;;;;769382;183;26483;-80
2024/03/31 12:14:10;;;;;;;9.73;2.20;;;20.50;66.10;;;;;;774925;183;26460;-82
2024/03/31 12:16:35;;;;;;;11.47;2.17;;;20.00;71.40;;;;;;771869;183;26502;-79
2024/03/31 12:19:02;;;;;;;8.07;2.07;;;19.60;65.40;;;;;;775465;183;26459;-80
2024/03/31 12:21:28;;;;;;;10.50;2.70;;;19.40;67.60;;;;;;776163;183;26469;-80
2024/03/31 12:23:55;;;;;;;8.33;2.33;;;19.60;71.70;;;;;;777674;183;26504;-81
2024/03/31 12:26:22;;;;;;;9.30;2.77;;;19.50;65.10;;;;;;769383;183;26488;-81
2024/03/31 12:28:49;;;;;;;11.20;2.80;;;19.40;69.80;;;;;;781852;182;26471;-80
2024/03/31 12:31:16;;;;;;;7.67;2.43;;;19.50;75.30;;;;;;773251;186;26540;-81
2024/03/31 12:33:43;;;;;;;10.30;2.67;;;19.30;69.80;;;;;;782082;181;26530;-82
2024/03/31 12:36:10;;;;;;;9.40;2.60;;;19.00;77.20;;;;;;769358;181;26486;-80
2024/03/31 12:38:36;;;;;;;8.30;2.50;;;18.90;72.90;;;;;;777348;183;26539;-80
2024/03/31 12:41:03;;;;;;;10.17;2.57;;;18.90;73.40;;;;;;776106;183;26484;-80
2024/03/31 12:43:29;;;;;;;10.97;2.83;;;18.80;76.70;;;;;;769223;183;26491;-79
2024/03/31 12:45:56;;;;;;;11.07;2.87;;;18.80;84.70;;;;;;767618;186;27054;-79
2024/03/31 12:48:23;;;;;;;9.60;2.83;;;18.90;70.00;;;;;;776544;183;26484;-80
2024/03/31 12:50:49;;;;;;;13.80;2.63;;;19.00;79.20;;;;;;773343;182;26479;-80
2024/03/31 12:53:16;;;;;;;10.60;2.60;;;19.30;70.50;;;;;;769568;184;26526;-80
2024/03/31 12:55:42;;;;;;;16.93;3.93;;;19.30;70.60;;;;;;768175;183;26463;-80